createdAt,value
2019-05-14T00:00:10.834Z,5.28
2019-05-14T00:01:11.837Z,5.15
2019-05-14T00:02:12.519Z,5.18
2019-05-14T00:03:12.321Z,5.12
2019-05-14T00:04:11.690Z,5.08
2019-05-14T00:05:12.659Z,5.04
2019-05-14T00:06:11.835Z,5.07
2019-05-14T00:07:11.999Z,5.16
2019-05-14T00:08:12.156Z,5.25
2019-05-14T00:09:12.334Z,5.18
2019-05-14T00:10:12.486Z,5.05
2019-05-14T00:11:13.106Z,5.05
2019-05-14T00:12:13.810Z,5.07
2019-05-14T00:13:12.942Z,5.18
2019-05-14T00:14:13.120Z,5.26
2019-05-14T00:15:13.304Z,5.26
2019-05-14T00:16:13.524Z,5.41
2019-05-14T00:17:13.702Z,5.47
2019-05-14T00:18:13.861Z,5.38
2019-05-14T00:19:14.046Z,5.52
2019-05-14T00:20:14.219Z,5.47
2019-05-14T00:21:14.411Z,5.47
2019-05-14T00:22:14.582Z,5.54
2019-05-14T00:23:14.759Z,5.62
2019-05-14T00:24:14.919Z,5.59
2019-05-14T00:25:15.088Z,5.54
2019-05-14T00:26:15.299Z,5.41
2019-05-14T00:27:15.475Z,5.47
2019-05-14T00:28:31.734Z,5.49
2019-05-14T00:29:15.794Z,5.43
2019-05-14T00:30:15.978Z,5.36
2019-05-14T00:31:16.175Z,5.49
2019-05-14T00:32:16.351Z,5.36
2019-05-14T00:33:16.590Z,5.41
2019-05-14T00:34:16.785Z,5.36
2019-05-14T00:35:16.971Z,5.33
2019-05-14T00:36:17.179Z,5.37
2019-05-14T00:37:17.387Z,5.36
2019-05-14T00:38:17.560Z,5.28
2019-05-14T00:39:17.713Z,5.29
2019-05-14T00:40:17.883Z,5.41
2019-05-14T00:41:18.068Z,5.37
2019-05-14T00:42:18.330Z,5.36
2019-05-14T00:43:18.406Z,5.40
2019-05-14T00:44:18.574Z,5.36
2019-05-14T00:45:18.724Z,5.31
2019-05-14T00:46:21.092Z,5.29
2019-05-14T00:47:19.020Z,5.22
2019-05-14T00:48:19.236Z,5.19
2019-05-14T00:49:21.213Z,5.18
2019-05-14T00:50:21.466Z,5.25
2019-05-14T00:51:21.518Z,5.23
2019-05-14T00:52:22.068Z,5.16
2019-05-14T00:53:21.276Z,5.16
2019-05-14T00:54:21.630Z,5.07
2019-05-14T00:55:22.307Z,5.07
2019-05-14T00:56:21.749Z,4.98
2019-05-14T00:57:21.769Z,4.97
2019-05-14T00:58:21.955Z,4.90
2019-05-14T00:59:21.624Z,4.94
2019-05-14T01:00:22.259Z,4.86
2019-05-14T01:01:21.623Z,4.79
2019-05-14T01:02:22.585Z,4.68
2019-05-14T01:03:21.933Z,4.76
2019-05-14T01:04:22.895Z,4.67
2019-05-14T01:05:22.052Z,4.76
2019-05-14T01:06:22.227Z,4.82
2019-05-14T01:07:22.406Z,4.74
2019-05-14T01:08:22.630Z,4.71
2019-05-14T01:09:22.828Z,4.68
2019-05-14T01:10:23.012Z,4.57
2019-05-14T01:11:23.215Z,4.57
2019-05-14T01:12:23.391Z,4.58
2019-05-14T01:13:23.607Z,4.50
2019-05-14T01:14:23.802Z,4.48
2019-05-14T01:15:23.998Z,4.43
2019-05-14T01:16:24.111Z,4.46
2019-05-14T01:17:24.315Z,4.48
2019-05-14T01:18:24.513Z,4.38
2019-05-14T01:19:24.703Z,4.39
2019-05-14T01:20:24.904Z,4.20
2019-05-14T01:21:25.117Z,4.14
2019-05-14T01:22:25.273Z,4.12
2019-05-14T01:23:25.466Z,3.96
2019-05-14T01:24:25.660Z,3.96
2019-05-14T01:25:25.827Z,3.81
2019-05-14T01:26:27.036Z,3.92
2019-05-14T01:27:26.174Z,3.88
2019-05-14T01:28:26.365Z,3.70
2019-05-14T01:29:26.536Z,3.84
2019-05-14T01:30:26.718Z,3.77
2019-05-14T01:31:26.944Z,3.78
2019-05-14T01:32:27.143Z,3.73
2019-05-14T01:33:27.320Z,3.74
2019-05-14T01:34:27.536Z,3.74
2019-05-14T01:35:27.724Z,3.58
2019-05-14T01:36:27.896Z,3.63
2019-05-14T01:37:28.108Z,3.63
2019-05-14T01:38:28.319Z,3.63
2019-05-14T01:39:28.480Z,3.59
2019-05-14T01:40:31.249Z,3.58
2019-05-14T01:41:28.842Z,3.53
2019-05-14T01:42:29.041Z,3.61
2019-05-14T01:43:31.281Z,3.63
2019-05-14T01:44:31.745Z,3.50
2019-05-14T01:45:31.689Z,3.58
2019-05-14T01:46:31.670Z,3.53
2019-05-14T01:47:31.752Z,3.48
2019-05-14T01:48:31.282Z,3.46
2019-05-14T01:49:31.703Z,3.55
2019-05-14T01:50:32.274Z,3.55
2019-05-14T01:51:31.872Z,3.41
2019-05-14T01:52:31.926Z,3.30
2019-05-14T01:53:31.935Z,3.29
2019-05-14T01:54:31.721Z,3.16
2019-05-14T01:55:32.563Z,3.18
2019-05-14T01:56:32.437Z,3.30
2019-05-14T01:57:31.587Z,3.31
2019-05-14T01:58:31.748Z,3.49
2019-05-14T01:59:32.317Z,3.55
2019-05-14T02:00:33.095Z,3.48
2019-05-14T02:01:32.269Z,3.49
2019-05-14T02:02:32.479Z,3.56
2019-05-14T02:03:32.627Z,3.52
2019-05-14T02:04:32.799Z,3.66
2019-05-14T02:05:32.978Z,3.64
2019-05-14T02:06:33.146Z,3.74
2019-05-14T02:07:33.342Z,3.77
2019-05-14T02:08:33.495Z,3.77
2019-05-14T02:09:33.655Z,3.68
2019-05-14T02:10:33.846Z,3.73
2019-05-14T02:11:34.002Z,3.71
2019-05-14T02:12:34.148Z,3.71
2019-05-14T02:13:34.267Z,3.74
2019-05-14T02:14:34.415Z,3.74
2019-05-14T02:15:39.823Z,3.78
2019-05-14T02:16:36.788Z,3.84
2019-05-14T02:17:35.053Z,3.77
2019-05-14T02:18:35.212Z,3.78
2019-05-14T02:19:35.349Z,3.82
2019-05-14T02:20:35.499Z,3.78
2019-05-14T02:21:35.652Z,3.70
2019-05-14T02:22:35.844Z,3.67
2019-05-14T02:23:36.055Z,3.67
2019-05-14T02:24:36.268Z,3.73
2019-05-14T02:25:36.453Z,3.73
2019-05-14T02:26:36.640Z,3.66
2019-05-14T02:27:36.804Z,3.61
2019-05-14T02:28:36.986Z,3.73
2019-05-14T02:29:37.157Z,3.63
2019-05-14T02:30:48.072Z,3.68
2019-05-14T02:31:39.500Z,3.49
2019-05-14T02:32:40.454Z,3.43
2019-05-14T02:33:39.629Z,3.46
2019-05-14T02:34:40.115Z,3.43
2019-05-14T02:35:39.916Z,3.58
2019-05-14T02:36:40.130Z,3.53
2019-05-14T02:37:40.562Z,3.59
2019-05-14T02:38:39.092Z,3.68
2019-05-14T02:39:40.953Z,3.66
2019-05-14T02:40:40.704Z,3.70
2019-05-14T02:41:39.647Z,3.82
2019-05-14T02:42:40.426Z,3.71
2019-05-14T02:43:41.253Z,3.67
2019-05-14T02:44:40.974Z,3.74
2019-05-14T02:46:00.616Z,3.66
2019-05-14T02:46:42.559Z,3.70
2019-05-14T02:47:40.681Z,3.67
2019-05-14T02:48:40.891Z,3.73
2019-05-14T02:49:41.106Z,3.74
2019-05-14T02:50:41.292Z,3.82
2019-05-14T02:51:41.462Z,3.91
2019-05-14T02:52:41.646Z,3.92
2019-05-14T02:53:41.818Z,3.94
2019-05-14T02:54:42.060Z,3.91
2019-05-14T02:55:42.240Z,4.12
2019-05-14T02:56:42.406Z,4.06
2019-05-14T02:57:42.564Z,4.18
2019-05-14T02:58:42.745Z,4.22
2019-05-14T02:59:43.953Z,4.27
2019-05-14T03:00:43.084Z,4.27
2019-05-14T03:01:43.235Z,4.34
2019-05-14T03:02:43.405Z,4.39
2019-05-14T03:03:43.564Z,4.42
2019-05-14T03:04:43.741Z,4.45
2019-05-14T03:05:43.958Z,4.43
2019-05-14T03:06:44.156Z,4.46
2019-05-14T03:07:44.339Z,4.52
2019-05-14T03:08:44.519Z,4.49
2019-05-14T03:09:44.701Z,4.52
2019-05-14T03:10:44.926Z,4.49
2019-05-14T03:11:45.105Z,4.49
2019-05-14T03:12:45.284Z,4.50
2019-05-14T03:13:49.403Z,4.45
2019-05-14T03:14:45.640Z,4.52
2019-05-14T03:15:45.851Z,4.46
2019-05-14T03:16:49.317Z,4.38
2019-05-14T03:17:49.197Z,4.32
2019-05-14T03:18:46.442Z,4.16
2019-05-14T03:19:49.462Z,4.18
2019-05-14T03:20:50.037Z,4.10
2019-05-14T03:21:50.213Z,3.99
2019-05-14T03:23:02.519Z,3.91
2019-05-14T03:23:49.863Z,3.70
2019-05-14T03:24:50.175Z,3.68
2019-05-14T03:25:49.304Z,3.67
2019-05-14T03:26:49.908Z,3.67
2019-05-14T03:27:49.864Z,3.67
2019-05-14T03:28:49.938Z,3.59
2019-05-14T03:29:50.288Z,3.67
2019-05-14T03:30:52.134Z,3.59
2019-05-14T03:31:52.942Z,3.63
2019-05-14T03:32:52.797Z,3.77
2019-05-14T03:33:52.535Z,3.67
2019-05-14T03:34:53.220Z,3.64
2019-05-14T03:35:58.587Z,3.74
2019-05-14T03:36:53.172Z,3.67
2019-05-14T03:37:50.977Z,3.64
2019-05-14T03:38:50.460Z,3.63
2019-05-14T03:39:51.390Z,3.52
2019-05-14T03:40:50.520Z,3.50
2019-05-14T03:41:50.683Z,3.58
2019-05-14T03:42:50.912Z,3.49
2019-05-14T03:43:51.114Z,3.58
2019-05-14T03:44:51.306Z,3.56
2019-05-14T03:45:51.459Z,3.48
2019-05-14T03:46:55.450Z,3.55
2019-05-14T03:47:53.819Z,3.56
2019-05-14T03:48:51.930Z,3.56
2019-05-14T03:49:52.103Z,3.61
2019-05-14T03:50:52.276Z,3.68
2019-05-14T03:51:52.465Z,3.74
2019-05-14T03:52:52.631Z,3.73
2019-05-14T03:54:01.892Z,3.71
2019-05-14T03:54:54.915Z,3.68
2019-05-14T03:55:53.163Z,3.63
2019-05-14T03:56:53.360Z,3.67
2019-05-14T03:57:53.519Z,3.66
2019-05-14T03:58:53.667Z,3.67
2019-05-14T03:59:53.830Z,3.74
2019-05-14T04:00:54.009Z,3.71
2019-05-14T04:01:54.245Z,3.73
2019-05-14T04:02:54.408Z,3.74
2019-05-14T04:03:54.566Z,3.82
2019-05-14T04:04:54.729Z,3.77
2019-05-14T04:05:58.709Z,3.76
2019-05-14T04:06:55.129Z,3.92
2019-05-14T04:07:55.267Z,3.86
2019-05-14T04:08:55.402Z,3.78
2019-05-14T04:09:55.545Z,3.88
2019-05-14T04:10:58.841Z,3.78
2019-05-14T04:11:59.229Z,3.82
2019-05-14T04:12:59.850Z,3.81
2019-05-14T04:13:56.310Z,3.86
2019-05-14T04:14:59.390Z,3.77
2019-05-14T04:16:00.189Z,3.84
2019-05-14T04:17:08.903Z,3.81
2019-05-14T04:17:59.669Z,3.74
2019-05-14T04:18:59.436Z,3.76
2019-05-14T04:19:59.985Z,3.67
2019-05-14T04:20:59.470Z,3.61
2019-05-14T04:21:59.840Z,3.56
2019-05-14T04:23:00.046Z,3.58
2019-05-14T04:23:59.539Z,3.59
2019-05-14T04:24:59.855Z,3.64
2019-05-14T04:26:00.654Z,3.59
2019-05-14T04:27:07.227Z,3.63
2019-05-14T04:28:00.831Z,3.70
2019-05-14T04:29:00.383Z,3.63
2019-05-14T04:30:00.255Z,3.74
2019-05-14T04:30:59.861Z,3.76
2019-05-14T04:32:00.514Z,3.71
2019-05-14T04:32:59.629Z,3.76
2019-05-14T04:33:59.812Z,3.86
2019-05-14T04:35:00.043Z,3.94
2019-05-14T04:36:00.525Z,4.07
2019-05-14T04:37:00.353Z,4.24
2019-05-14T04:38:00.520Z,4.25
2019-05-14T04:39:00.903Z,4.31
2019-05-14T04:40:00.898Z,4.46
2019-05-14T04:41:01.051Z,4.56
2019-05-14T04:42:02.238Z,4.58
2019-05-14T04:43:01.396Z,4.74
2019-05-14T04:44:01.490Z,4.87
2019-05-14T04:45:05.537Z,4.94
2019-05-14T04:46:02.871Z,5.10
2019-05-14T04:47:21.520Z,5.22
2019-05-14T04:48:24.095Z,5.29
2019-05-14T04:49:03.358Z,5.37
2019-05-14T04:50:02.505Z,5.44
2019-05-14T04:51:02.689Z,5.58
2019-05-14T04:52:02.869Z,5.76
2019-05-14T04:53:03.063Z,5.76
2019-05-14T04:54:03.222Z,5.88
2019-05-14T04:55:03.397Z,5.91
2019-05-14T04:56:03.626Z,5.99
2019-05-14T04:57:03.841Z,6.02
2019-05-14T04:58:04.000Z,6.07
2019-05-14T04:59:04.178Z,6.06
2019-05-14T05:00:04.370Z,6.05
2019-05-14T05:01:04.589Z,6.06
2019-05-14T05:02:04.746Z,6.07
2019-05-14T05:03:08.568Z,6.22
2019-05-14T05:04:09.587Z,6.31
2019-05-14T05:05:05.202Z,6.29
2019-05-14T05:06:05.404Z,6.49
2019-05-14T05:07:05.601Z,6.32
2019-05-14T05:08:08.861Z,6.38
2019-05-14T05:09:09.130Z,6.39
2019-05-14T05:10:06.074Z,6.47
2019-05-14T05:11:09.109Z,6.36
2019-05-14T05:12:09.124Z,6.44
2019-05-14T05:13:09.130Z,6.46
2019-05-14T05:14:08.875Z,6.56
2019-05-14T05:15:09.260Z,6.53
2019-05-14T05:16:09.960Z,6.36
2019-05-14T05:17:09.146Z,6.54
2019-05-14T05:18:09.573Z,6.74
2019-05-14T05:19:10.381Z,6.77
2019-05-14T05:20:09.913Z,6.80
2019-05-14T05:21:08.942Z,6.71
2019-05-14T05:22:08.191Z,6.82
2019-05-14T05:23:08.534Z,6.78
2019-05-14T05:24:09.471Z,6.97
2019-05-14T05:25:08.586Z,7.13
2019-05-14T05:26:09.387Z,6.96
2019-05-14T05:27:10.000Z,6.87
2019-05-14T05:28:09.103Z,6.85
2019-05-14T05:29:10.567Z,6.57
2019-05-14T05:30:10.473Z,6.32
2019-05-14T05:31:09.600Z,6.49
2019-05-14T05:32:09.759Z,6.50
2019-05-14T05:33:09.940Z,6.62
2019-05-14T05:34:10.108Z,6.65
2019-05-14T05:35:10.265Z,6.80
2019-05-14T05:36:10.464Z,6.90
2019-05-14T05:37:10.597Z,6.92
2019-05-14T05:38:10.769Z,7.08
2019-05-14T05:39:10.944Z,6.92
2019-05-14T05:40:11.116Z,7.03
2019-05-14T05:41:11.283Z,6.97
2019-05-14T05:42:11.427Z,6.92
2019-05-14T05:43:11.595Z,6.96
2019-05-14T05:44:11.771Z,7.08
2019-05-14T05:45:11.976Z,7.07
2019-05-14T05:46:12.144Z,7.21
2019-05-14T05:47:12.295Z,7.13
2019-05-14T05:48:12.450Z,7.18
2019-05-14T05:49:12.583Z,7.15
2019-05-14T05:50:12.753Z,7.29
2019-05-14T05:51:12.881Z,7.29
2019-05-14T05:52:13.016Z,7.39
2019-05-14T05:53:13.150Z,7.47
2019-05-14T05:54:13.349Z,7.51
2019-05-14T05:55:13.535Z,7.53
2019-05-14T05:56:13.716Z,7.33
2019-05-14T05:57:13.887Z,7.37
2019-05-14T05:58:14.019Z,7.43
2019-05-14T05:59:14.175Z,7.47
2019-05-14T06:00:15.382Z,7.58
2019-05-14T06:01:14.511Z,7.64
2019-05-14T06:02:14.689Z,7.72
2019-05-14T06:03:14.892Z,7.61
2019-05-14T06:04:15.043Z,7.51
2019-05-14T06:05:15.212Z,7.44
2019-05-14T06:06:15.389Z,7.39
2019-05-14T06:07:15.576Z,7.36
2019-05-14T06:08:15.769Z,7.46
2019-05-14T06:09:18.078Z,7.47
2019-05-14T06:10:18.571Z,7.51
2019-05-14T06:11:19.125Z,7.56
2019-05-14T06:12:18.824Z,7.70
2019-05-14T06:13:18.241Z,7.67
2019-05-14T06:14:18.636Z,7.83
2019-05-14T06:15:19.238Z,7.81
2019-05-14T06:16:18.633Z,7.88
2019-05-14T06:17:19.093Z,7.84
2019-05-14T06:18:21.952Z,7.87
2019-05-14T06:19:18.856Z,7.91
2019-05-14T06:20:18.960Z,7.91
2019-05-14T06:21:19.520Z,7.93
2019-05-14T06:22:19.039Z,8.09
2019-05-14T06:23:19.645Z,8.18
2019-05-14T06:24:19.325Z,8.31
2019-05-14T06:25:21.102Z,8.28
2019-05-14T06:26:20.217Z,8.41
2019-05-14T06:27:19.319Z,8.31
2019-05-14T06:28:20.864Z,8.16
2019-05-14T06:29:20.699Z,8.08
2019-05-14T06:30:19.850Z,8.14
2019-05-14T06:31:20.053Z,8.17
2019-05-14T06:32:20.250Z,8.13
2019-05-14T06:33:20.404Z,8.14
2019-05-14T06:34:20.578Z,8.06
2019-05-14T06:35:20.798Z,8.13
2019-05-14T06:36:21.009Z,8.11
2019-05-14T06:37:21.209Z,8.13
2019-05-14T06:38:21.406Z,8.16
2019-05-14T06:39:21.577Z,7.96
2019-05-14T06:40:21.746Z,7.78
2019-05-14T06:41:21.953Z,7.81
2019-05-14T06:42:22.176Z,7.81
2019-05-14T06:43:22.362Z,7.90
2019-05-14T06:44:22.548Z,7.93
2019-05-14T06:45:22.733Z,7.93
2019-05-14T06:46:22.969Z,7.87
2019-05-14T06:47:23.143Z,7.95
2019-05-14T06:48:30.680Z,7.98
2019-05-14T06:49:25.474Z,7.98
2019-05-14T06:50:23.709Z,8.03
2019-05-14T06:51:23.858Z,8.13
2019-05-14T06:52:24.038Z,8.01
2019-05-14T06:53:24.211Z,8.06
2019-05-14T06:54:24.386Z,8.08
2019-05-14T06:55:24.575Z,8.11
2019-05-14T06:56:24.745Z,8.14
2019-05-14T06:57:24.946Z,8.18
2019-05-14T06:58:25.131Z,8.26
2019-05-14T06:59:25.288Z,8.23
2019-05-14T07:00:25.419Z,8.26
2019-05-14T07:01:25.542Z,8.31
2019-05-14T07:02:28.353Z,8.36
2019-05-14T07:03:27.960Z,8.41
2019-05-14T07:04:26.037Z,8.31
2019-05-14T07:05:28.146Z,8.42
2019-05-14T07:06:28.826Z,8.45
2019-05-14T07:07:26.452Z,8.27
2019-05-14T07:08:28.498Z,8.24
2019-05-14T07:09:28.845Z,8.16
2019-05-14T07:10:28.687Z,8.24
2019-05-14T07:11:29.260Z,8.23
2019-05-14T07:12:29.407Z,8.31
2019-05-14T07:13:29.278Z,8.42
2019-05-14T07:14:28.598Z,8.49
2019-05-14T07:15:29.000Z,8.50
2019-05-14T07:16:28.923Z,8.54
2019-05-14T07:17:28.732Z,8.42
2019-05-14T07:18:45.187Z,8.56
2019-05-14T07:19:29.756Z,8.41
2019-05-14T07:20:29.709Z,8.56
2019-05-14T07:21:29.315Z,8.53
2019-05-14T07:22:30.073Z,8.53
2019-05-14T07:23:29.325Z,8.57
2019-05-14T07:24:29.479Z,8.42
2019-05-14T07:25:29.627Z,8.56
2019-05-14T07:26:29.873Z,8.64
2019-05-14T07:27:29.903Z,8.50
2019-05-14T07:28:30.053Z,8.60
2019-05-14T07:29:30.232Z,8.59
2019-05-14T07:30:30.405Z,8.61
2019-05-14T07:31:30.541Z,8.59
2019-05-14T07:32:30.694Z,8.59
2019-05-14T07:33:30.852Z,8.69
2019-05-14T07:34:31.039Z,8.77
2019-05-14T07:35:31.228Z,8.82
2019-05-14T07:36:31.371Z,8.90
2019-05-14T07:37:31.528Z,8.86
2019-05-14T07:38:31.693Z,8.99
2019-05-14T07:39:31.918Z,9.11
2019-05-14T07:40:32.094Z,9.21
2019-05-14T07:41:32.263Z,9.30
2019-05-14T07:42:32.441Z,9.45
2019-05-14T07:43:32.606Z,9.64
2019-05-14T07:44:33.799Z,9.81
2019-05-14T07:45:33.483Z,9.76
2019-05-14T07:46:34.180Z,9.90
2019-05-14T07:47:33.324Z,10.05
2019-05-14T07:48:33.519Z,10.07
2019-05-14T07:49:33.728Z,10.06
2019-05-14T07:50:33.874Z,9.92
2019-05-14T07:51:34.119Z,9.90
2019-05-14T07:52:34.283Z,9.80
2019-05-14T07:53:38.927Z,9.51
2019-05-14T07:54:38.751Z,9.42
2019-05-14T07:55:34.751Z,9.47
2019-05-14T07:56:34.920Z,9.49
2019-05-14T07:57:35.114Z,9.59
2019-05-14T07:58:35.316Z,9.48
2019-05-14T07:59:37.698Z,9.77
2019-05-14T08:00:35.653Z,9.92
2019-05-14T08:01:35.817Z,10.27
2019-05-14T08:02:37.941Z,10.69
2019-05-14T08:03:38.310Z,10.94
2019-05-14T08:04:38.147Z,11.31
2019-05-14T08:05:38.792Z,11.77
2019-05-14T08:06:39.200Z,11.89
2019-05-14T08:07:38.802Z,11.88
2019-05-14T08:08:38.553Z,12.08
2019-05-14T08:09:38.912Z,11.93
2019-05-14T08:10:39.208Z,11.83
2019-05-14T08:11:38.936Z,11.89
2019-05-14T08:12:39.292Z,12.00
2019-05-14T08:13:40.100Z,11.88
2019-05-14T08:14:55.043Z,11.83
2019-05-14T08:15:40.405Z,11.85
2019-05-14T08:16:38.530Z,11.99
2019-05-14T08:17:38.878Z,12.25
2019-05-14T08:18:39.983Z,12.05
2019-05-14T08:19:39.115Z,12.18
2019-05-14T08:20:39.290Z,12.44
2019-05-14T08:21:39.447Z,12.40
2019-05-14T08:22:39.661Z,12.39
2019-05-14T08:23:39.869Z,12.57
2019-05-14T08:24:40.087Z,12.55
2019-05-14T08:25:40.265Z,12.68
2019-05-14T08:26:42.877Z,12.80
2019-05-14T08:27:41.591Z,13.03
2019-05-14T08:28:40.777Z,12.99
2019-05-14T08:29:40.966Z,13.19
2019-05-14T08:30:41.154Z,13.42
2019-05-14T08:31:41.324Z,13.60
2019-05-14T08:32:41.516Z,13.65
2019-05-14T08:33:41.744Z,13.91
2019-05-14T08:34:41.909Z,13.97
2019-05-14T08:35:42.091Z,14.00
2019-05-14T08:36:42.276Z,14.15
2019-05-14T08:37:42.444Z,14.38
2019-05-14T08:38:45.354Z,14.45
2019-05-14T08:39:43.753Z,14.59
2019-05-14T08:40:42.888Z,14.67
2019-05-14T08:41:43.051Z,14.63
2019-05-14T08:42:43.213Z,14.70
2019-05-14T08:43:43.389Z,14.77
2019-05-14T08:44:43.591Z,14.52
2019-05-14T08:45:45.423Z,14.38
2019-05-14T08:46:45.344Z,14.31
2019-05-14T08:47:45.171Z,14.25
2019-05-14T08:48:44.335Z,14.49
2019-05-14T08:49:46.697Z,14.19
2019-05-14T08:50:48.157Z,14.34
2019-05-14T08:51:44.773Z,14.85
2019-05-14T08:52:44.976Z,14.94
2019-05-14T08:53:45.143Z,15.44
2019-05-14T08:54:45.340Z,15.35
2019-05-14T08:55:45.517Z,13.95
2019-05-14T08:56:45.675Z,13.79
2019-05-14T08:57:48.689Z,14.18
2019-05-14T08:58:49.153Z,14.59
2019-05-14T08:59:48.551Z,15.05
2019-05-14T09:00:48.309Z,15.48
2019-05-14T09:02:00.929Z,15.62
2019-05-14T09:02:48.813Z,16.02
2019-05-14T09:03:49.183Z,16.26
2019-05-14T09:04:54.052Z,16.25
2019-05-14T09:05:49.426Z,16.64
2019-05-14T09:06:48.961Z,16.72
2019-05-14T09:07:49.145Z,16.54
2019-05-14T09:08:49.610Z,16.17
2019-05-14T09:09:49.210Z,16.41
2019-05-14T09:10:49.704Z,15.59
2019-05-14T09:11:50.388Z,14.68
2019-05-14T09:12:49.733Z,15.14
2019-05-14T09:13:49.201Z,14.92
2019-05-14T09:14:50.081Z,15.29
2019-05-14T09:15:49.228Z,15.63
2019-05-14T09:16:51.078Z,15.54
2019-05-14T09:17:50.664Z,15.72
2019-05-14T09:18:50.809Z,15.98
2019-05-14T09:20:02.256Z,16.09
2019-05-14T09:20:52.059Z,15.59
2019-05-14T09:21:50.206Z,15.11
2019-05-14T09:22:50.356Z,15.50
2019-05-14T09:23:50.532Z,16.29
2019-05-14T09:24:50.756Z,16.43
2019-05-14T09:25:53.343Z,16.43
2019-05-14T09:26:52.177Z,17.13
2019-05-14T09:27:51.311Z,16.92
2019-05-14T09:28:51.486Z,17.05
2019-05-14T09:29:51.686Z,17.14
2019-05-14T09:30:51.863Z,17.53
2019-05-14T09:31:52.056Z,17.50
2019-05-14T09:32:52.226Z,17.27
2019-05-14T09:33:52.422Z,16.51
2019-05-14T09:34:52.602Z,16.46
2019-05-14T09:36:09.662Z,15.66
2019-05-14T09:36:54.931Z,14.97
2019-05-14T09:37:53.037Z,15.00
2019-05-14T09:38:53.208Z,15.37
2019-05-14T09:39:53.395Z,16.08
2019-05-14T09:41:07.088Z,16.80
2019-05-14T09:41:58.002Z,17.39
2019-05-14T09:42:53.870Z,17.84
2019-05-14T09:43:54.023Z,17.71
2019-05-14T09:44:54.204Z,17.73
2019-05-14T09:45:54.416Z,18.27
2019-05-14T09:46:54.608Z,18.37
2019-05-14T09:47:54.773Z,18.98
2019-05-14T09:48:54.945Z,19.11
2019-05-14T09:49:55.100Z,18.96
2019-05-14T09:50:55.311Z,19.17
2019-05-14T09:51:55.470Z,19.42
2019-05-14T09:52:55.668Z,19.42
2019-05-14T09:53:55.857Z,19.59
2019-05-14T09:54:58.434Z,19.93
2019-05-14T09:55:58.243Z,19.53
2019-05-14T09:56:58.965Z,18.66
2019-05-14T09:57:58.609Z,18.21
2019-05-14T09:58:58.727Z,17.49
2019-05-14T09:59:58.607Z,16.54
2019-05-14T10:00:59.109Z,16.37
2019-05-14T10:01:58.538Z,17.57
2019-05-14T10:02:59.652Z,18.48
2019-05-14T10:03:59.202Z,18.97
2019-05-14T10:04:59.790Z,18.53
2019-05-14T10:05:59.225Z,17.87
2019-05-14T10:06:59.446Z,18.64
2019-05-14T10:07:59.582Z,18.18
2019-05-14T10:08:59.529Z,16.73
2019-05-14T10:09:58.745Z,16.86
2019-05-14T10:11:00.238Z,17.68
2019-05-14T10:12:00.111Z,18.26
2019-05-14T10:13:01.265Z,18.81
2019-05-14T10:14:00.472Z,19.24
2019-05-14T10:14:59.628Z,19.17
2019-05-14T10:15:59.833Z,19.55
2019-05-14T10:17:00.042Z,19.08
2019-05-14T10:18:01.256Z,18.26
2019-05-14T10:19:00.400Z,17.14
2019-05-14T10:20:00.625Z,16.06
2019-05-14T10:21:00.807Z,15.70
2019-05-14T10:22:00.986Z,16.68
2019-05-14T10:23:01.192Z,16.91
2019-05-14T10:24:01.377Z,16.74
2019-05-14T10:25:01.544Z,16.61
2019-05-14T10:26:01.743Z,17.10
2019-05-14T10:27:01.942Z,17.28
2019-05-14T10:28:02.107Z,17.75
2019-05-14T10:29:02.296Z,18.16
2019-05-14T10:30:02.467Z,18.42
2019-05-14T10:31:03.825Z,18.83
2019-05-14T10:32:03.780Z,18.28
2019-05-14T10:33:09.173Z,17.91
2019-05-14T10:34:05.110Z,16.98
2019-05-14T10:35:03.232Z,16.32
2019-05-14T10:36:03.420Z,15.73
2019-05-14T10:37:03.621Z,15.39
2019-05-14T10:38:03.830Z,15.22
2019-05-14T10:39:03.944Z,14.96
2019-05-14T10:40:04.121Z,15.33
2019-05-14T10:41:04.303Z,14.92
2019-05-14T10:42:04.505Z,15.23
2019-05-14T10:43:04.678Z,15.62
2019-05-14T10:44:04.893Z,16.40
2019-05-14T10:45:05.089Z,17.04
2019-05-14T10:46:05.297Z,16.77
2019-05-14T10:47:05.537Z,16.44
2019-05-14T10:48:05.724Z,17.17
2019-05-14T10:49:16.361Z,17.69
2019-05-14T10:50:13.361Z,18.31
2019-05-14T10:51:09.638Z,18.49
2019-05-14T10:52:08.229Z,18.98
2019-05-14T10:53:09.074Z,18.98
2019-05-14T10:54:21.152Z,17.94
2019-05-14T10:55:09.024Z,16.68
2019-05-14T10:56:09.868Z,15.94
2019-05-14T10:57:09.565Z,16.06
2019-05-14T10:58:08.986Z,16.66
2019-05-14T10:59:09.460Z,15.87
2019-05-14T11:00:09.099Z,15.37
2019-05-14T11:01:11.211Z,14.99
2019-05-14T11:02:12.049Z,14.97
2019-05-14T11:03:09.341Z,15.67
2019-05-14T11:04:08.521Z,16.46
2019-05-14T11:05:08.780Z,17.28
2019-05-14T11:06:11.688Z,18.19
2019-05-14T11:07:10.143Z,18.85
2019-05-14T11:08:11.932Z,19.44
2019-05-14T11:09:10.548Z,19.57
2019-05-14T11:10:09.732Z,20.00
2019-05-14T11:11:10.783Z,20.40
2019-05-14T11:12:11.092Z,20.00
2019-05-14T11:13:10.252Z,20.53
2019-05-14T11:14:10.486Z,20.89
2019-05-14T11:15:10.690Z,21.00
2019-05-14T11:16:10.882Z,20.78
2019-05-14T11:17:12.012Z,20.80
2019-05-14T11:18:12.248Z,21.08
2019-05-14T11:19:11.484Z,20.53
2019-05-14T11:20:11.584Z,19.72
2019-05-14T11:21:22.689Z,19.66
2019-05-14T11:22:13.958Z,20.50
2019-05-14T11:23:12.210Z,21.00
2019-05-14T11:24:12.387Z,21.28
2019-05-14T11:25:12.569Z,21.63
2019-05-14T11:26:12.755Z,21.74
2019-05-14T11:27:12.939Z,21.59
2019-05-14T11:28:13.112Z,22.00
2019-05-14T11:29:13.300Z,22.51
2019-05-14T11:30:13.469Z,22.76
2019-05-14T11:31:13.631Z,23.17
2019-05-14T11:32:13.793Z,23.47
2019-05-14T11:33:13.990Z,23.26
2019-05-14T11:34:14.127Z,23.14
2019-05-14T11:35:14.306Z,23.07
2019-05-14T11:36:14.514Z,20.92
2019-05-14T11:37:14.711Z,19.24
2019-05-14T11:38:28.691Z,17.72
2019-05-14T11:39:18.092Z,17.20
2019-05-14T11:40:15.168Z,18.49
2019-05-14T11:41:15.332Z,19.30
2019-05-14T11:42:15.496Z,20.15
2019-05-14T11:43:15.655Z,20.93
2019-05-14T11:44:15.784Z,21.32
2019-05-14T11:45:15.933Z,22.31
2019-05-14T11:46:16.157Z,22.26
2019-05-14T11:47:18.149Z,22.43
2019-05-14T11:48:19.067Z,22.07
2019-05-14T11:49:19.162Z,21.77
2019-05-14T11:50:19.214Z,20.30
2019-05-14T11:51:18.962Z,20.58
2019-05-14T11:52:18.066Z,21.05
2019-05-14T11:53:19.865Z,21.68
2019-05-14T11:54:22.388Z,20.78
2019-05-14T11:55:18.905Z,21.32
2019-05-14T11:56:19.597Z,20.18
2019-05-14T11:57:19.390Z,18.88
2019-05-14T11:58:21.244Z,19.84
2019-05-14T11:59:19.499Z,20.03
2019-05-14T12:00:19.497Z,19.90
2019-05-14T12:01:19.790Z,18.09
2019-05-14T12:02:19.113Z,17.17
2019-05-14T12:03:19.888Z,16.47
2019-05-14T12:04:20.543Z,16.17
2019-05-14T12:05:19.405Z,15.98
2019-05-14T12:06:19.610Z,15.80
2019-05-14T12:07:19.800Z,17.44
2019-05-14T12:08:19.961Z,18.97
2019-05-14T12:09:20.142Z,19.07
2019-05-14T12:10:20.301Z,19.07
2019-05-14T12:11:20.456Z,20.02
2019-05-14T12:12:21.620Z,20.92
2019-05-14T12:13:20.746Z,21.17
2019-05-14T12:14:20.900Z,21.05
2019-05-14T12:15:21.049Z,21.10
2019-05-14T12:16:21.225Z,21.33
2019-05-14T12:17:21.376Z,20.24
2019-05-14T12:18:21.546Z,18.67
2019-05-14T12:19:21.683Z,17.53
2019-05-14T12:20:21.808Z,18.74
2019-05-14T12:21:22.010Z,19.00
2019-05-14T12:22:22.166Z,19.57
2019-05-14T12:23:22.307Z,19.94
2019-05-14T12:24:22.474Z,20.36
2019-05-14T12:25:22.616Z,20.89
2019-05-14T12:26:22.773Z,21.83
2019-05-14T12:27:22.933Z,22.46
2019-05-14T12:28:23.135Z,21.38
2019-05-14T12:29:23.325Z,18.43
2019-05-14T12:30:23.512Z,18.19
2019-05-14T12:31:23.670Z,19.12
2019-05-14T12:32:23.850Z,19.22
2019-05-14T12:33:24.023Z,19.01
2019-05-14T12:34:24.207Z,20.27
2019-05-14T12:35:24.393Z,21.04
2019-05-14T12:36:24.561Z,21.63
2019-05-14T12:37:24.742Z,21.74
2019-05-14T12:38:25.174Z,22.00
2019-05-14T12:39:25.576Z,21.59
2019-05-14T12:40:25.317Z,19.89
2019-05-14T12:41:25.493Z,18.58
2019-05-14T12:42:25.670Z,18.39
2019-05-14T12:43:27.988Z,17.69
2019-05-14T12:44:28.898Z,16.98
2019-05-14T12:45:26.308Z,17.24
2019-05-14T12:46:29.243Z,16.80
2019-05-14T12:47:28.975Z,18.28
2019-05-14T12:48:29.545Z,19.05
2019-05-14T12:49:27.131Z,18.60
2019-05-14T12:50:27.313Z,19.48
2019-05-14T12:51:27.553Z,20.33
2019-05-14T12:52:29.717Z,21.08
2019-05-14T12:53:28.739Z,20.53
2019-05-14T12:54:29.840Z,19.19
2019-05-14T12:55:29.890Z,18.26
2019-05-14T12:56:29.424Z,17.75
2019-05-14T12:57:30.126Z,18.23
2019-05-14T12:58:29.822Z,19.41
2019-05-14T12:59:29.040Z,20.18
2019-05-14T13:00:29.134Z,20.68
2019-05-14T13:01:29.379Z,21.04
2019-05-14T13:02:29.795Z,21.69
2019-05-14T13:03:29.783Z,21.83
2019-05-14T13:04:30.022Z,22.44
2019-05-14T13:05:30.158Z,22.84
2019-05-14T13:06:30.307Z,21.30
2019-05-14T13:07:30.408Z,18.81
2019-05-14T13:08:30.622Z,17.49
2019-05-14T13:09:30.811Z,18.23
2019-05-14T13:10:30.959Z,19.11